createdAt,value
2019-05-25T00:00:06.845Z,23.50
2019-05-25T00:02:34.717Z,23.60
2019-05-25T00:05:02.681Z,23.60
2019-05-25T00:07:30.749Z,23.60
2019-05-25T00:09:58.886Z,23.50
2019-05-25T00:12:26.893Z,23.40
2019-05-25T00:14:54.963Z,23.40
2019-05-25T00:17:22.933Z,23.40
2019-05-25T00:19:50.959Z,23.40
2019-05-25T00:22:18.869Z,23.40
2019-05-25T00:24:46.849Z,23.40
2019-05-25T00:27:14.815Z,23.40
2019-05-25T00:29:42.778Z,23.40
2019-05-25T00:32:10.849Z,23.50
2019-05-25T00:34:38.717Z,23.40
2019-05-25T00:37:06.786Z,23.40
2019-05-25T00:39:34.752Z,23.40
2019-05-25T00:42:02.926Z,23.40
2019-05-25T00:44:30.903Z,23.30
2019-05-25T00:46:58.885Z,23.30
2019-05-25T00:49:26.935Z,23.30
2019-05-25T00:51:54.915Z,23.30
2019-05-25T00:54:27.954Z,23.40
2019-05-25T00:56:52.381Z,23.40
2019-05-25T00:59:20.288Z,23.30
2019-05-25T01:01:48.314Z,23.30
2019-05-25T01:04:16.287Z,23.30
2019-05-25T01:06:44.253Z,23.30
2019-05-25T01:09:12.222Z,23.30
2019-05-25T01:11:40.189Z,23.30
2019-05-25T01:14:08.065Z,23.30
2019-05-25T01:16:36.029Z,23.40
2019-05-25T01:19:03.925Z,23.40
2019-05-25T01:21:32.679Z,23.40
2019-05-25T01:24:00.752Z,23.40
2019-05-25T01:26:28.825Z,23.30
2019-05-25T01:28:56.680Z,23.20
2019-05-25T01:31:24.663Z,23.20
2019-05-25T01:33:52.731Z,23.10
2019-05-25T01:36:20.594Z,23.10
2019-05-25T01:38:48.566Z,23.00
2019-05-25T01:41:16.433Z,23.00
2019-05-25T01:43:44.501Z,23.00
2019-05-25T01:46:12.574Z,23.00
2019-05-25T01:48:40.541Z,23.00
2019-05-25T01:51:08.509Z,23.00
2019-05-25T01:53:36.477Z,23.00
2019-05-25T01:56:04.348Z,23.00
2019-05-25T01:58:32.315Z,23.00
2019-05-25T02:01:00.190Z,23.00
2019-05-25T02:03:28.150Z,23.00
2019-05-25T02:05:56.158Z,23.00
2019-05-25T02:08:24.089Z,23.00
2019-05-25T02:10:52.016Z,23.00
2019-05-25T02:13:20.026Z,23.10
2019-05-25T02:15:47.998Z,23.10
2019-05-25T02:18:16.266Z,23.10
2019-05-25T02:20:44.153Z,23.20
2019-05-25T02:23:12.206Z,23.20
2019-05-25T02:25:40.122Z,23.20
2019-05-25T02:28:08.055Z,23.30
2019-05-25T02:30:36.110Z,23.30
2019-05-25T02:33:04.088Z,23.20
2019-05-25T02:35:32.054Z,23.30
2019-05-25T02:38:00.032Z,23.30
2019-05-25T02:40:28.434Z,23.30
2019-05-25T02:42:56.470Z,23.30
2019-05-25T02:45:24.434Z,23.30
2019-05-25T02:47:52.405Z,23.30
2019-05-25T02:50:20.884Z,23.30
2019-05-25T02:52:48.865Z,23.30
2019-05-25T02:55:32.483Z,23.30
2019-05-25T02:57:46.538Z,23.30
2019-05-25T03:00:16.245Z,23.30
2019-05-25T03:02:44.244Z,23.30
2019-05-25T03:05:13.614Z,23.30
2019-05-25T03:07:41.525Z,23.30
2019-05-25T03:10:09.552Z,23.30
2019-05-25T03:12:37.636Z,23.30
2019-05-25T03:15:07.156Z,23.30
2019-05-25T03:17:35.198Z,23.30
2019-05-25T03:20:03.925Z,23.30
2019-05-25T03:22:31.862Z,23.30
2019-05-25T03:24:59.796Z,23.30
2019-05-25T03:27:27.900Z,23.40
2019-05-25T03:29:55.757Z,23.40
2019-05-25T03:32:23.800Z,23.40
2019-05-25T03:34:51.798Z,23.40
2019-05-25T03:37:19.770Z,23.40
2019-05-25T03:39:47.737Z,23.40
2019-05-25T03:42:15.703Z,23.40
2019-05-25T03:44:43.777Z,23.40
2019-05-25T03:47:11.854Z,23.40
2019-05-25T03:49:39.833Z,23.40
2019-05-25T03:52:07.886Z,23.40
2019-05-25T03:54:35.957Z,23.40
2019-05-25T03:57:03.833Z,23.40
2019-05-25T03:59:31.797Z,23.40
2019-05-25T04:01:59.675Z,23.40
2019-05-25T04:04:27.644Z,23.40
2019-05-25T04:06:55.663Z,23.50
2019-05-25T04:09:23.769Z,23.50
2019-05-25T04:11:53.376Z,23.50
2019-05-25T04:14:21.449Z,23.50
2019-05-25T04:16:49.416Z,23.50
2019-05-25T04:19:17.385Z,23.50
2019-05-25T04:21:45.212Z,23.50
2019-05-25T04:24:14.858Z,23.50
2019-05-25T04:26:42.827Z,23.50
2019-05-25T04:29:10.741Z,23.50
2019-05-25T04:31:38.765Z,23.50
2019-05-25T04:34:06.839Z,23.50
2019-05-25T04:36:34.809Z,23.50
2019-05-25T04:39:03.043Z,23.50
2019-05-25T04:41:30.904Z,23.50
2019-05-25T04:43:58.839Z,23.50
2019-05-25T04:46:26.991Z,23.50
2019-05-25T04:48:54.905Z,23.50
2019-05-25T04:51:22.834Z,23.50
2019-05-25T04:53:50.799Z,23.60
2019-05-25T04:56:18.862Z,23.60
2019-05-25T04:58:46.715Z,23.60
2019-05-25T05:01:14.868Z,23.60
2019-05-25T05:03:42.872Z,23.60
2019-05-25T05:06:10.947Z,23.60
2019-05-25T05:08:38.888Z,23.60
2019-05-25T05:11:06.880Z,23.70
2019-05-25T05:13:34.955Z,23.60
2019-05-25T05:16:03.088Z,23.60
2019-05-25T05:18:31.201Z,23.60
2019-05-25T05:20:59.280Z,23.60
2019-05-25T05:23:27.376Z,23.60
2019-05-25T05:25:55.315Z,23.60
2019-05-25T05:28:23.297Z,23.60
2019-05-25T05:30:51.168Z,23.60
2019-05-25T05:33:19.213Z,23.60
2019-05-25T05:35:47.129Z,23.70
2019-05-25T05:38:15.057Z,23.70
2019-05-25T05:40:43.119Z,23.70
2019-05-25T05:43:11.600Z,23.70
2019-05-25T05:45:40.500Z,23.70
2019-05-25T05:48:09.275Z,23.60
2019-05-25T05:50:37.350Z,23.60
2019-05-25T05:53:05.319Z,23.70
2019-05-25T05:55:33.390Z,23.70
2019-05-25T05:58:02.113Z,23.70
2019-05-25T06:00:30.057Z,23.70
2019-05-25T06:02:57.982Z,23.70
2019-05-25T06:05:25.999Z,23.70
2019-05-25T06:07:53.972Z,23.50
2019-05-25T06:10:21.964Z,23.40
2019-05-25T06:12:50.000Z,23.40
2019-05-25T06:15:18.137Z,23.40
2019-05-25T06:17:46.161Z,23.50
2019-05-25T06:20:14.310Z,23.60
2019-05-25T06:22:42.438Z,23.60
2019-05-25T06:25:10.270Z,23.70
2019-05-25T06:27:38.319Z,23.70
2019-05-25T06:30:09.158Z,23.70
2019-05-25T06:32:37.227Z,23.70
2019-05-25T06:35:06.740Z,23.80
2019-05-25T06:37:34.855Z,23.80
2019-05-25T06:40:03.091Z,23.80
2019-05-25T06:42:31.070Z,23.80
2019-05-25T06:44:59.116Z,23.80
2019-05-25T06:47:27.092Z,23.80
2019-05-25T06:49:55.156Z,23.80
2019-05-25T06:52:23.130Z,23.80
2019-05-25T06:54:51.195Z,23.80
2019-05-25T06:57:19.269Z,23.80
2019-05-25T06:59:47.374Z,23.80
2019-05-25T07:02:15.426Z,23.80
2019-05-25T07:04:43.438Z,23.80
2019-05-25T07:07:11.471Z,23.80
2019-05-25T07:09:39.428Z,23.90
2019-05-25T07:12:07.446Z,23.80
2019-05-25T07:14:35.477Z,23.80
2019-05-25T07:17:03.527Z,23.80
2019-05-25T07:19:31.599Z,23.80
2019-05-25T07:21:59.675Z,23.80
2019-05-25T07:24:27.646Z,23.90
2019-05-25T07:26:55.610Z,23.90
2019-05-25T07:29:23.682Z,23.90
2019-05-25T07:31:51.751Z,23.90
2019-05-25T07:34:19.721Z,23.90
2019-05-25T07:36:47.693Z,23.80
2019-05-25T07:39:15.678Z,23.80
2019-05-25T07:41:43.729Z,23.80
2019-05-25T07:44:11.697Z,23.80
2019-05-25T07:46:39.766Z,23.80
2019-05-25T07:49:07.841Z,23.90
2019-05-25T07:51:35.908Z,23.80
2019-05-25T07:54:03.897Z,23.90
2019-05-25T07:56:37.976Z,23.90
2019-05-25T07:59:06.021Z,23.80
2019-05-25T08:01:34.034Z,23.80
2019-05-25T08:04:03.505Z,23.80
2019-05-25T08:06:39.963Z,23.80
2019-05-25T08:09:10.024Z,23.80
2019-05-25T08:11:37.999Z,23.90
2019-05-25T08:14:07.596Z,23.90
2019-05-25T08:16:35.673Z,23.90
2019-05-25T08:19:03.604Z,24.00
2019-05-25T08:21:31.860Z,24.10
2019-05-25T08:23:59.808Z,24.10
2019-05-25T08:26:27.887Z,24.10
2019-05-25T08:28:56.130Z,24.00
2019-05-25T08:31:24.137Z,24.10
2019-05-25T08:33:52.081Z,24.00
2019-05-25T08:36:20.134Z,24.00
2019-05-25T08:38:48.210Z,24.00
2019-05-25T08:41:16.176Z,24.00
2019-05-25T08:43:44.152Z,24.00
2019-05-25T08:46:12.124Z,23.90
2019-05-25T08:48:40.079Z,24.00
2019-05-25T08:51:08.055Z,24.00
2019-05-25T08:53:41.297Z,24.00
2019-05-25T08:56:05.630Z,24.00
2019-05-25T08:58:47.574Z,23.90
2019-05-25T09:01:03.349Z,23.90
2019-05-25T09:03:31.375Z,23.90
2019-05-25T09:05:59.409Z,23.90
2019-05-25T09:08:27.421Z,23.90
2019-05-25T09:10:55.406Z,23.90
2019-05-25T09:13:23.246Z,23.90
2019-05-25T09:15:51.216Z,23.90
2019-05-25T09:18:19.099Z,23.90
2019-05-25T09:20:47.067Z,23.90
2019-05-25T09:23:15.168Z,23.90
2019-05-25T09:25:43.406Z,23.90
2019-05-25T09:28:11.280Z,23.90
2019-05-25T09:30:39.248Z,23.90
2019-05-25T09:33:08.740Z,23.90
2019-05-25T09:35:37.029Z,23.80
2019-05-25T09:38:08.263Z,23.80
2019-05-25T09:40:44.838Z,23.80
2019-05-25T09:43:09.116Z,23.80
2019-05-25T09:45:37.185Z,23.80
2019-05-25T09:48:05.204Z,23.80
2019-05-25T09:50:34.413Z,23.70
2019-05-25T09:53:02.535Z,23.70
2019-05-25T09:55:30.496Z,23.60
2019-05-25T09:57:58.469Z,23.50
2019-05-25T10:00:26.453Z,23.50
2019-05-25T10:02:54.438Z,23.40
2019-05-25T10:05:22.485Z,23.40
2019-05-25T10:07:50.546Z,23.40
2019-05-25T10:10:19.140Z,23.30
2019-05-25T10:12:47.214Z,23.30
2019-05-25T10:15:15.269Z,23.30
2019-05-25T10:17:43.290Z,23.30
2019-05-25T10:20:11.209Z,23.20
2019-05-25T10:22:39.290Z,23.10
2019-05-25T10:25:07.488Z,23.10
2019-05-25T10:27:35.560Z,23.00
2019-05-25T10:30:03.774Z,22.90
2019-05-25T10:32:31.785Z,22.80
2019-05-25T10:34:59.943Z,22.90
2019-05-25T10:37:28.013Z,23.00
2019-05-25T10:39:55.989Z,23.10
2019-05-25T10:42:24.053Z,23.10
2019-05-25T10:44:52.157Z,23.20
2019-05-25T10:47:20.196Z,23.20
2019-05-25T10:49:48.295Z,23.20
2019-05-25T10:52:16.250Z,23.30
2019-05-25T10:54:44.205Z,23.40
2019-05-25T10:57:13.377Z,23.40
2019-05-25T10:59:52.468Z,23.40
2019-05-25T11:02:11.286Z,23.50
2019-05-25T11:04:39.270Z,23.50
2019-05-25T11:07:07.656Z,23.50
2019-05-25T11:09:35.601Z,23.50
2019-05-25T11:12:03.670Z,23.60
2019-05-25T11:14:31.871Z,23.60
2019-05-25T11:16:59.817Z,23.60
2019-05-25T11:19:27.885Z,23.60
2019-05-25T11:21:55.741Z,23.60
2019-05-25T11:24:23.833Z,23.60
2019-05-25T11:26:53.430Z,23.60
2019-05-25T11:29:21.417Z,23.70
2019-05-25T11:31:56.459Z,23.60
2019-05-25T11:34:19.177Z,23.60
2019-05-25T11:36:47.175Z,23.60
2019-05-25T11:39:15.117Z,23.50
2019-05-25T11:41:43.093Z,23.50
2019-05-25T11:44:11.154Z,23.50
2019-05-25T11:46:39.129Z,23.50
2019-05-25T11:49:21.638Z,23.60
2019-05-25T11:51:36.801Z,23.60
2019-05-25T11:54:04.880Z,23.60
2019-05-25T11:56:32.856Z,23.50
2019-05-25T11:59:00.922Z,23.50
2019-05-25T12:01:29.159Z,23.50
2019-05-25T12:03:57.160Z,23.50
2019-05-25T12:06:25.128Z,23.50
2019-05-25T12:09:06.053Z,23.50
2019-05-25T12:11:34.072Z,23.50
2019-05-25T12:14:03.267Z,23.50
2019-05-25T12:16:31.260Z,23.50
2019-05-25T12:18:59.325Z,23.60
2019-05-25T12:21:29.375Z,23.60
2019-05-25T12:23:57.408Z,23.60
2019-05-25T12:26:25.369Z,23.60
2019-05-25T12:28:53.381Z,23.70
2019-05-25T12:31:21.418Z,23.70
2019-05-25T12:33:49.388Z,23.70
2019-05-25T12:36:17.444Z,23.70
2019-05-25T12:38:45.621Z,23.70
2019-05-25T12:41:13.631Z,23.80
2019-05-25T12:43:41.660Z,23.80
2019-05-25T12:46:09.629Z,23.80
2019-05-25T12:48:37.696Z,23.80
2019-05-25T12:51:05.799Z,23.80
2019-05-25T12:53:33.852Z,23.80
2019-05-25T12:56:01.721Z,23.80
2019-05-25T12:58:29.879Z,23.80
2019-05-25T13:00:57.880Z,23.80
2019-05-25T13:03:28.359Z,23.80
2019-05-25T13:05:55.430Z,23.90
2019-05-25T13:08:23.405Z,23.80
2019-05-25T13:10:51.469Z,23.90
2019-05-25T13:13:19.550Z,23.80
2019-05-25T13:15:47.521Z,23.80
2019-05-25T13:18:15.481Z,23.80
2019-05-25T13:20:43.595Z,23.80
2019-05-25T13:23:11.525Z,23.80
2019-05-25T13:25:39.585Z,23.80
2019-05-25T13:28:07.599Z,23.80
2019-05-25T13:30:35.626Z,23.80
2019-05-25T13:33:03.629Z,23.80
2019-05-25T13:35:31.570Z,23.90
2019-05-25T13:37:59.551Z,23.90
2019-05-25T13:40:27.510Z,23.90
2019-05-25T13:42:55.574Z,23.90
2019-05-25T13:45:23.649Z,23.90
2019-05-25T13:47:51.621Z,23.90
2019-05-25T13:50:19.738Z,23.90
2019-05-25T13:52:47.753Z,24.00
2019-05-25T13:55:15.823Z,24.00
2019-05-25T13:57:43.899Z,24.00
2019-05-25T14:00:11.871Z,24.20
2019-05-25T14:02:39.771Z,24.20
2019-05-25T14:05:07.911Z,24.10
2019-05-25T14:07:35.778Z,24.20
2019-05-25T14:10:05.281Z,24.20
2019-05-25T14:12:33.346Z,24.20
2019-05-25T14:15:01.371Z,24.20
2019-05-25T14:17:38.508Z,24.20
2019-05-25T14:20:02.302Z,24.20
2019-05-25T14:22:30.383Z,24.30
2019-05-25T14:24:58.417Z,24.30
2019-05-25T14:27:26.383Z,24.30
2019-05-25T14:29:54.363Z,24.30
2019-05-25T14:32:22.337Z,24.30
2019-05-25T14:34:50.389Z,24.30
2019-05-25T14:37:18.365Z,24.30
2019-05-25T14:39:46.332Z,24.30
2019-05-25T14:42:14.400Z,24.30
2019-05-25T14:44:42.364Z,24.30
2019-05-25T14:47:10.378Z,24.30
2019-05-25T14:49:38.332Z,24.40
2019-05-25T14:52:06.297Z,24.40
2019-05-25T14:54:34.345Z,24.40
2019-05-25T14:57:02.424Z,24.40
2019-05-25T14:59:30.401Z,24.40
2019-05-25T15:02:02.462Z,24.40
2019-05-25T15:04:28.070Z,24.40
2019-05-25T15:06:55.949Z,24.40
2019-05-25T15:09:23.999Z,24.30
2019-05-25T15:12:02.675Z,24.30
2019-05-25T15:14:31.124Z,24.30
2019-05-25T15:17:04.830Z,24.40
2019-05-25T15:19:45.153Z,24.40
2019-05-25T15:22:13.509Z,24.40
2019-05-25T15:24:41.722Z,24.70
2019-05-25T15:27:09.686Z,24.60
2019-05-25T15:29:37.599Z,24.60
2019-05-25T15:32:18.779Z,24.60
2019-05-25T15:34:35.126Z,24.50
2019-05-25T15:37:03.093Z,24.50
2019-05-25T15:39:55.846Z,24.50
2019-05-25T15:42:23.914Z,24.50
2019-05-25T15:44:51.797Z,24.50
2019-05-25T15:47:19.953Z,24.50
2019-05-25T15:49:47.867Z,24.60
2019-05-25T15:52:15.796Z,24.50
2019-05-25T15:54:43.859Z,24.60
2019-05-25T15:57:11.829Z,24.60
2019-05-25T15:59:39.906Z,24.60
2019-05-25T16:02:07.767Z,24.50
2019-05-25T16:04:35.855Z,24.50
2019-05-25T16:07:03.909Z,24.40
2019-05-25T16:09:31.979Z,24.50
2019-05-25T16:12:00.051Z,24.50
2019-05-25T16:14:28.155Z,24.50
2019-05-25T16:16:56.205Z,24.50
2019-05-25T16:19:24.165Z,24.50
2019-05-25T16:21:52.157Z,24.50
2019-05-25T16:24:20.513Z,24.50
2019-05-25T16:26:48.579Z,24.40
2019-05-25T16:29:16.565Z,24.40
2019-05-25T16:31:44.532Z,24.40
2019-05-25T16:34:12.693Z,24.40
2019-05-25T16:36:40.567Z,24.40
2019-05-25T16:39:08.638Z,24.40
2019-05-25T16:41:36.700Z,24.40
2019-05-25T16:44:07.747Z,24.40
2019-05-25T16:46:35.605Z,24.40
2019-05-25T16:49:03.642Z,24.40
2019-05-25T16:51:31.751Z,24.30
2019-05-25T16:53:59.658Z,24.30
2019-05-25T16:56:27.562Z,24.30
2019-05-25T16:58:55.410Z,24.30
2019-05-25T17:01:23.444Z,24.30
2019-05-25T17:03:51.499Z,24.30
2019-05-25T17:06:19.624Z,24.30
2019-05-25T17:08:47.648Z,24.30
2019-05-25T17:11:15.607Z,24.30
2019-05-25T17:13:43.837Z,24.30
2019-05-25T17:16:12.050Z,24.30
2019-05-25T17:18:40.020Z,24.30
2019-05-25T17:21:08.014Z,24.20
2019-05-25T17:23:36.161Z,24.30
2019-05-25T17:26:04.973Z,24.20
2019-05-25T17:28:32.984Z,24.20
2019-05-25T17:31:01.200Z,24.20
2019-05-25T17:33:44.627Z,24.20
2019-05-25T17:35:58.775Z,24.20
2019-05-25T17:38:26.770Z,24.20
2019-05-25T17:40:56.054Z,24.20
2019-05-25T17:43:24.110Z,24.20
2019-05-25T17:45:52.080Z,24.20
2019-05-25T17:48:20.185Z,24.20
2019-05-25T17:50:48.129Z,24.20
2019-05-25T17:53:16.189Z,24.20
2019-05-25T17:55:44.158Z,24.20
2019-05-25T17:58:12.237Z,24.20
2019-05-25T18:00:41.226Z,24.20
2019-05-25T18:03:09.197Z,24.20
2019-05-25T18:05:37.300Z,24.20
2019-05-25T18:08:05.279Z,24.20
2019-05-25T18:10:49.058Z,24.10
2019-05-25T18:13:02.924Z,24.20
2019-05-25T18:15:30.981Z,24.10
2019-05-25T18:17:59.053Z,24.10
2019-05-25T18:20:27.124Z,24.10
2019-05-25T18:22:55.030Z,24.10
2019-05-25T18:25:23.062Z,24.10
2019-05-25T18:27:51.068Z,24.10
2019-05-25T18:30:19.007Z,24.10
2019-05-25T18:32:47.074Z,24.10
2019-05-25T18:35:14.974Z,24.10
2019-05-25T18:37:42.910Z,24.10
2019-05-25T18:40:10.876Z,24.10
2019-05-25T18:42:39.066Z,24.10
2019-05-25T18:45:07.016Z,24.10
2019-05-25T18:47:34.996Z,24.10
2019-05-25T18:50:03.057Z,24.10
2019-05-25T18:52:30.951Z,24.10
2019-05-25T18:54:58.993Z,24.10
2019-05-25T18:57:27.006Z,24.10
2019-05-25T18:59:54.941Z,24.10
2019-05-25T19:02:22.901Z,24.00
2019-05-25T19:04:59.424Z,24.00
2019-05-25T19:07:20.476Z,24.00
2019-05-25T19:09:48.547Z,24.00
2019-05-25T19:12:16.620Z,24.00
2019-05-25T19:14:44.601Z,24.00
2019-05-25T19:17:12.556Z,24.00
2019-05-25T19:19:40.533Z,24.00
2019-05-25T19:22:08.567Z,24.00
2019-05-25T19:24:36.563Z,24.00
2019-05-25T19:27:04.539Z,24.00
2019-05-25T19:29:32.471Z,24.00
2019-05-25T19:32:00.477Z,24.00
2019-05-25T19:34:28.645Z,24.00
2019-05-25T19:36:56.564Z,24.00
2019-05-25T19:39:24.629Z,24.00
2019-05-25T19:41:52.657Z,24.00
2019-05-25T19:44:20.634Z,24.00
2019-05-25T19:46:48.631Z,24.00
2019-05-25T19:49:16.663Z,24.00
2019-05-25T19:51:44.641Z,24.00
2019-05-25T19:54:12.609Z,24.00
2019-05-25T19:56:40.477Z,24.00
2019-05-25T19:59:08.434Z,24.00
2019-05-25T20:01:36.409Z,24.00
2019-05-25T20:04:04.274Z,24.00
2019-05-25T20:06:32.241Z,24.00
2019-05-25T20:09:00.209Z,24.00
2019-05-25T20:11:28.277Z,24.00
2019-05-25T20:13:56.250Z,24.00
2019-05-25T20:16:25.131Z,24.10
2019-05-25T20:18:53.317Z,24.10
2019-05-25T20:21:21.384Z,24.10
2019-05-25T20:23:49.272Z,24.10
2019-05-25T20:26:17.115Z,24.10
2019-05-25T20:28:45.083Z,24.10
2019-05-25T20:31:13.179Z,24.10
2019-05-25T20:33:41.363Z,24.10
2019-05-25T20:36:09.440Z,24.10
2019-05-25T20:38:39.762Z,24.10
2019-05-25T20:41:08.513Z,24.10
2019-05-25T20:43:36.379Z,24.10
2019-05-25T20:46:04.287Z,24.10
2019-05-25T20:48:32.234Z,24.10
2019-05-25T20:51:00.180Z,24.10
2019-05-25T20:53:28.084Z,24.10
2019-05-25T20:55:56.011Z,24.10
2019-05-25T20:58:23.952Z,24.10
2019-05-25T21:00:51.850Z,24.10
2019-05-25T21:03:19.819Z,24.10
2019-05-25T21:05:50.601Z,24.10
2019-05-25T21:08:17.307Z,24.10
2019-05-25T21:10:45.465Z,24.10
2019-05-25T21:13:16.034Z,24.20
2019-05-25T21:15:43.854Z,24.10
2019-05-25T21:18:11.770Z,24.10
2019-05-25T21:20:39.797Z,24.10
2019-05-25T21:23:07.768Z,24.10
2019-05-25T21:25:35.735Z,24.10
2019-05-25T21:28:03.617Z,24.10
2019-05-25T21:30:31.577Z,24.10
2019-05-25T21:32:59.684Z,24.10
2019-05-25T21:35:27.718Z,24.10
2019-05-25T21:37:55.754Z,24.10
2019-05-25T21:40:23.836Z,24.10
2019-05-25T21:42:51.737Z,24.10
2019-05-25T21:45:20.411Z,24.10
2019-05-25T21:47:48.379Z,24.10
2019-05-25T21:50:16.349Z,24.10
2019-05-25T21:52:44.317Z,24.10
2019-05-25T21:55:12.189Z,24.00
2019-05-25T21:57:40.165Z,24.00
2019-05-25T22:00:10.115Z,24.00
2019-05-25T22:02:38.042Z,24.00
2019-05-25T22:05:06.517Z,24.00
2019-05-25T22:07:34.485Z,24.00
2019-05-25T22:10:02.559Z,24.00
2019-05-25T22:12:30.630Z,24.00
2019-05-25T22:14:58.709Z,24.00
2019-05-25T22:17:26.665Z,24.00
2019-05-25T22:19:54.739Z,24.00
2019-05-25T22:22:22.705Z,24.00
2019-05-25T22:24:50.677Z,24.00
2019-05-25T22:27:18.656Z,24.00
2019-05-25T22:29:46.714Z,24.00
2019-05-25T22:32:14.686Z,24.00
2019-05-25T22:34:42.653Z,24.00
2019-05-25T22:37:10.725Z,24.00
2019-05-25T22:39:38.795Z,24.00
2019-05-25T22:42:06.762Z,24.00
2019-05-25T22:44:34.833Z,24.00
2019-05-25T22:47:02.740Z,24.00
2019-05-25T22:49:30.771Z,24.00
2019-05-25T22:51:58.741Z,24.00
2019-05-25T22:54:26.709Z,24.00
2019-05-25T22:56:54.678Z,24.00
2019-05-25T22:59:22.650Z,24.00
2019-05-25T23:01:50.760Z,24.00
2019-05-25T23:04:18.790Z,24.00
2019-05-25T23:06:57.092Z,24.00
2019-05-25T23:09:16.466Z,24.00
2019-05-25T23:11:44.441Z,24.00
2019-05-25T23:14:12.508Z,24.00
2019-05-25T23:16:40.680Z,24.00
2019-05-25T23:19:08.712Z,24.00
2019-05-25T23:21:36.720Z,24.00
2019-05-25T23:24:04.704Z,24.00
2019-05-25T23:26:32.705Z,24.00
2019-05-25T23:29:00.633Z,24.00
2019-05-25T23:31:28.595Z,24.00
2019-05-25T23:33:56.565Z,24.00
2019-05-25T23:36:24.536Z,24.00
2019-05-25T23:38:52.504Z,24.00
2019-05-25T23:41:20.499Z,24.00
2019-05-25T23:43:48.544Z,24.00
2019-05-25T23:46:16.513Z,24.00
2019-05-25T23:48:44.479Z,24.00
2019-05-25T23:51:12.550Z,24.00
2019-05-25T23:53:40.625Z,24.00
2019-05-25T23:56:08.589Z,23.90
2019-05-25T23:58:36.565Z,24.00
